Time;durP1;ratioP1;P1;durP2;ratioP2;P2;SDS_P1;SDS_P2;PMS_P1;PMS_P2;Temp;Humidity;BMP_temperature;BMP_pressure;BME280_temperature;BME280_humidity;BME280_pressure;Samples;Min_cycle;Max_cycle;Signal;HPM_P1;HPM_P2
2021/01/21 00:01:28;;;;;;;10.88;5.50;;;2.20;99.90;;;;;;5071824;28;20397;-73
2021/01/21 00:03:54;;;;;;;8.07;6.07;;;2.20;99.90;;;;;;5073357;28;20085;-71
2021/01/21 00:06:19;;;;;;;11.18;6.15;;;2.20;99.90;;;;;;5076097;28;20113;-71
2021/01/21 00:08:45;;;;;;;9.35;5.93;;;2.20;99.90;;;;;;5075114;28;20020;-73
2021/01/21 00:11:11;;;;;;;8.55;5.15;;;2.20;99.90;;;;;;5076360;28;20104;-71
2021/01/21 00:13:36;;;;;;;9.00;5.82;;;2.20;99.90;;;;;;5075776;28;20024;-71
2021/01/21 00:16:02;;;;;;;9.85;5.45;;;2.30;99.90;;;;;;5075589;28;20496;-71
2021/01/21 00:18:28;;;;;;;9.50;5.65;;;2.20;99.90;;;;;;5075993;28;20608;-72
2021/01/21 00:20:54;;;;;;;7.30;5.32;;;2.20;99.90;;;;;;5076292;28;20028;-70
2021/01/21 00:23:19;;;;;;;7.13;5.20;;;2.20;99.90;;;;;;5076064;28;20105;-73
2021/01/21 00:25:46;;;;;;;9.20;4.88;;;2.20;99.90;;;;;;5075396;28;20544;-69
2021/01/21 00:28:13;;;;;;;9.02;5.40;;;2.10;99.90;;;;;;5075813;28;20562;-72
2021/01/21 00:30:38;;;;;;;9.63;5.43;;;2.30;99.90;;;;;;5075340;28;20028;-72
2021/01/21 00:33:04;;;;;;;8.00;4.85;;;2.20;99.90;;;;;;5074848;28;20100;-72
2021/01/21 00:35:30;;;;;;;10.02;5.50;;;2.30;99.90;;;;;;5075227;28;20031;-72
2021/01/21 00:37:55;;;;;;;8.38;5.85;;;2.30;99.90;;;;;;5075166;28;20506;-71
2021/01/21 00:40:21;;;;;;;8.88;6.10;;;2.30;99.90;;;;;;5075070;28;20029;-74
2021/01/21 00:42:47;;;;;;;12.25;7.68;;;2.30;99.90;;;;;;5074636;28;20114;-70
2021/01/21 00:45:12;;;;;;;12.02;7.50;;;2.30;99.90;;;;;;5074192;28;20162;-70
2021/01/21 00:47:38;;;;;;;12.50;7.80;;;2.40;99.90;;;;;;5075321;28;20078;-72
2021/01/21 00:50:05;;;;;;;12.40;7.05;;;2.40;99.90;;;;;;5075232;28;20036;-71
2021/01/21 00:52:30;;;;;;;9.38;5.47;;;2.40;99.90;;;;;;5075287;28;20027;-69
2021/01/21 00:54:56;;;;;;;11.80;7.32;;;2.40;99.90;;;;;;5074721;28;20103;-71
2021/01/21 00:57:22;;;;;;;16.02;8.57;;;2.40;99.90;;;;;;5075356;28;20028;-72
2021/01/21 00:59:47;;;;;;;12.45;8.25;;;2.30;99.90;;;;;;5057267;28;20029;-70
2021/01/21 01:02:13;;;;;;;19.70;9.35;;;2.30;99.90;;;;;;5074977;28;20059;-68
2021/01/21 01:04:39;;;;;;;16.13;10.32;;;2.30;99.90;;;;;;5074698;28;20064;-70
2021/01/21 01:07:05;;;;;;;15.13;10.35;;;2.30;99.90;;;;;;5075987;28;20123;-72
2021/01/21 01:09:31;;;;;;;17.40;10.73;;;2.20;99.90;;;;;;5076645;28;20024;-71
2021/01/21 01:11:57;;;;;;;13.88;9.38;;;2.20;99.90;;;;;;5077569;28;20494;-70
2021/01/21 01:14:23;;;;;;;14.52;9.05;;;2.30;99.90;;;;;;5086868;28;20028;-71
2021/01/21 01:16:49;;;;;;;13.98;9.85;;;2.30;99.90;;;;;;5088331;28;20036;-71
2021/01/21 01:19:15;;;;;;;15.32;10.00;;;2.30;99.90;;;;;;5062550;28;20037;-71
2021/01/21 01:21:42;;;;;;;15.57;9.88;;;2.40;99.90;;;;;;5074486;28;20474;-71
2021/01/21 01:24:08;;;;;;;18.05;10.02;;;2.40;99.90;;;;;;5073628;28;20021;-70
2021/01/21 01:26:34;;;;;;;12.23;9.05;;;2.30;99.90;;;;;;5072976;28;20029;-71
2021/01/21 01:28:59;;;;;;;11.65;7.65;;;2.30;99.90;;;;;;5074219;28;20059;-73
2021/01/21 01:31:26;;;;;;;13.48;9.13;;;2.30;99.90;;;;;;5055982;28;20574;-73
2021/01/21 01:33:51;;;;;;;13.30;8.07;;;2.30;99.90;;;;;;5073585;28;20417;-68
2021/01/21 01:36:17;;;;;;;13.90;8.82;;;2.30;99.90;;;;;;5074152;28;20078;-72
2021/01/21 01:38:43;;;;;;;12.75;7.97;;;2.30;99.90;;;;;;5074176;28;20059;-71
2021/01/21 01:41:09;;;;;;;15.32;7.78;;;2.30;99.90;;;;;;5056770;28;20039;-68
2021/01/21 01:43:35;;;;;;;10.15;6.90;;;2.30;99.90;;;;;;5086268;28;20029;-69
2021/01/21 01:46:01;;;;;;;10.38;6.75;;;2.50;99.90;;;;;;5075678;28;20031;-71
2021/01/21 01:48:27;;;;;;;10.00;7.13;;;2.60;99.90;;;;;;5085796;28;20029;-72
2021/01/21 01:50:52;;;;;;;9.27;6.55;;;2.50;99.90;;;;;;5080915;28;20028;-71
2021/01/21 01:53:18;;;;;;;9.20;6.72;;;2.50;99.90;;;;;;5073825;28;20038;-69
2021/01/21 01:55:44;;;;;;;9.27;6.80;;;2.60;99.90;;;;;;5073782;28;20434;-71
2021/01/21 01:58:12;;;;;;;9.20;6.20;;;2.70;99.90;;;;;;5064376;28;20040;-73
2021/01/21 02:00:38;;;;;;;8.60;5.88;;;2.60;99.90;;;;;;5054974;28;20095;-72
2021/01/21 02:03:04;;;;;;;9.65;6.05;;;2.70;99.90;;;;;;5064451;28;20088;-72
2021/01/21 02:05:30;;;;;;;10.25;5.70;;;2.70;99.90;;;;;;5073533;28;20047;-72
2021/01/21 02:07:56;;;;;;;7.88;6.13;;;2.70;99.90;;;;;;5073629;28;20032;-71
2021/01/21 02:10:22;;;;;;;9.25;5.90;;;2.70;99.90;;;;;;5073567;28;20036;-72
2021/01/21 02:13:18;;;;;;;8.45;6.05;;;2.70;99.90;;;;;;5072878;28;20503;-72
2021/01/21 02:16:14;;;;;;;9.75;6.78;;;2.80;99.90;;;;;;5072962;28;20027;-71
2021/01/21 02:18:48;;;;;;;9.80;6.20;;;2.80;99.90;;;;;;5073519;28;20091;-71
2021/01/21 02:21:38;;;;;;;14.77;6.65;;;2.80;99.90;;;;;;5072055;28;20039;-72
2021/01/21 02:24:28;;;;;;;8.77;6.07;;;2.80;99.90;;;;;;5072759;28;20052;-71
2021/01/21 02:27:00;;;;;;;6.68;5.57;;;2.80;99.90;;;;;;5073598;28;20023;-71
2021/01/21 02:29:29;;;;;;;;;;;2.80;99.90;;;;;;5054009;28;20031;-70
2021/01/21 02:32:07;;;;;;;10.10;7.03;;;2.90;99.90;;;;;;5073355;28;19904;-71
2021/01/21 02:34:51;;;;;;;10.63;7.15;;;2.80;99.90;;;;;;5054193;28;20025;-69
2021/01/21 02:37:25;;;;;;;12.75;7.78;;;2.80;99.90;;;;;;5054911;28;20032;-70
2021/01/21 02:39:54;;;;;;;11.43;7.65;;;2.80;99.90;;;;;;5072789;28;20114;-70
2021/01/21 02:42:20;;;;;;;10.63;6.82;;;2.80;99.90;;;;;;5054766;28;20036;-70
2021/01/21 02:44:47;;;;;;;12.98;7.85;;;2.80;99.90;;;;;;5071642;28;20112;-69
2021/01/21 02:47:13;;;;;;;12.85;7.63;;;2.80;99.90;;;;;;5072894;28;20107;-73
2021/01/21 02:49:40;;;;;;;12.77;7.35;;;2.80;99.90;;;;;;5072011;28;20080;-70
2021/01/21 02:52:20;;;;;;;9.30;5.53;;;2.80;99.90;;;;;;5072874;28;20509;-71
2021/01/21 02:55:28;;;;;;;7.72;5.50;;;2.80;99.90;;;;;;5072323;28;20032;-70
2021/01/21 02:58:12;;;;;;;8.50;4.47;;;2.90;99.90;;;;;;5043847;28;20044;-71
2021/01/21 03:00:39;;;;;;;8.40;4.45;;;2.90;99.90;;;;;;5072548;28;20099;-71
2021/01/21 03:03:12;;;;;;;9.30;6.82;;;3.00;99.90;;;;;;5071879;28;20024;-71
2021/01/21 03:05:39;;;;;;;10.82;5.80;;;3.10;99.90;;;;;;5072703;28;20038;-69
2021/01/21 03:08:07;;;;;;;13.00;7.10;;;3.20;99.90;;;;;;5055678;28;20514;-72
2021/01/21 03:10:32;;;;;;;9.10;5.88;;;3.30;99.90;;;;;;5075533;28;20024;-71
2021/01/21 03:12:58;;;;;;;10.32;5.80;;;3.30;99.90;;;;;;5074696;28;20055;-71
2021/01/21 03:15:25;;;;;;;9.80;6.88;;;3.40;99.90;;;;;;5073103;28;20074;-71
2021/01/21 03:17:51;;;;;;;9.18;6.68;;;3.30;99.90;;;;;;5062299;28;20028;-70
2021/01/21 03:20:17;;;;;;;9.23;5.70;;;3.30;99.90;;;;;;5082551;28;20048;-72
2021/01/21 03:22:43;;;;;;;8.80;6.63;;;3.30;99.90;;;;;;5079921;28;20115;-72
2021/01/21 03:25:10;;;;;;;8.75;5.90;;;3.40;99.90;;;;;;5075270;28;20541;-72
2021/01/21 03:27:36;;;;;;;9.00;5.40;;;3.30;99.90;;;;;;5052011;28;20044;-73
2021/01/21 03:30:03;;;;;;;7.18;4.75;;;3.40;99.90;;;;;;5034662;28;20048;-72
2021/01/21 03:32:28;;;;;;;7.47;5.13;;;3.40;99.90;;;;;;5052707;28;20070;-70
2021/01/21 03:34:54;;;;;;;6.10;4.15;;;3.50;99.90;;;;;;5052028;28;20112;-71
2021/01/21 03:37:20;;;;;;;8.88;5.57;;;3.60;99.90;;;;;;5052460;28;20098;-72
2021/01/21 03:39:45;;;;;;;7.38;5.15;;;3.50;99.90;;;;;;5053408;28;20084;-73
2021/01/21 03:42:11;;;;;;;8.77;5.18;;;3.50;99.90;;;;;;5052454;28;20040;-72
2021/01/21 03:44:36;;;;;;;6.22;4.80;;;3.50;99.90;;;;;;5052889;28;20025;-72
2021/01/21 03:47:02;;;;;;;6.13;5.18;;;3.50;99.90;;;;;;5052861;28;20389;-72
2021/01/21 03:49:28;;;;;;;7.65;5.80;;;3.40;99.90;;;;;;5054804;28;20510;-71
2021/01/21 03:51:53;;;;;;;8.30;5.05;;;3.50;99.90;;;;;;5052686;28;20538;-71
2021/01/21 03:54:19;;;;;;;6.88;4.40;;;3.40;99.90;;;;;;5053094;28;20104;-71
2021/01/21 03:56:45;;;;;;;5.57;3.97;;;3.50;99.90;;;;;;5065239;28;20060;-72
2021/01/21 03:59:10;;;;;;;7.90;4.95;;;3.50;99.90;;;;;;5054648;28;20035;-74
2021/01/21 04:01:36;;;;;;;5.70;4.57;;;3.60;99.90;;;;;;5072183;28;20036;-71
2021/01/21 04:04:01;;;;;;;7.72;4.45;;;3.60;99.90;;;;;;5071808;28;20047;-70
2021/01/21 04:06:27;;;;;;;5.90;3.75;;;3.70;99.90;;;;;;5072004;28;20078;-69
2021/01/21 04:08:53;;;;;;;6.00;3.78;;;3.70;99.90;;;;;;5072009;28;20021;-70
2021/01/21 04:11:19;;;;;;;4.68;3.72;;;3.80;99.90;;;;;;5071448;28;20025;-70
2021/01/21 04:13:44;;;;;;;4.03;2.58;;;3.80;99.90;;;;;;5071046;28;20035;-71
2021/01/21 04:16:10;;;;;;;5.47;3.05;;;3.90;99.90;;;;;;5071732;28;20025;-71
2021/01/21 04:18:35;;;;;;;6.75;3.13;;;4.00;99.90;;;;;;5071784;28;20028;-73
2021/01/21 04:21:01;;;;;;;5.70;2.75;;;4.10;99.90;;;;;;5072796;28;20029;-72
2021/01/21 04:23:27;;;;;;;2.60;2.40;;;4.20;99.90;;;;;;5077781;28;20100;-72
2021/01/21 04:25:52;;;;;;;3.40;1.92;;;4.30;99.90;;;;;;5080930;28;20419;-71
2021/01/21 04:28:18;;;;;;;2.70;2.47;;;4.40;99.90;;;;;;5077467;28;20384;-71
2021/01/21 04:30:44;;;;;;;3.90;2.83;;;4.30;99.90;;;;;;5075105;28;20363;-72
2021/01/21 04:33:09;;;;;;;4.57;2.20;;;4.30;99.90;;;;;;5054675;28;20482;-72
2021/01/21 04:35:35;;;;;;;2.72;2.38;;;4.30;99.90;;;;;;5073318;28;20804;-72
2021/01/21 04:38:01;;;;;;;4.65;2.10;;;4.30;99.90;;;;;;5073305;28;20441;-70
2021/01/21 04:40:27;;;;;;;6.40;2.20;;;4.50;99.90;;;;;;5073367;28;20024;-73
2021/01/21 04:42:53;;;;;;;1.98;1.67;;;4.60;99.90;;;;;;5072215;28;20035;-70
2021/01/21 04:45:19;;;;;;;1.85;1.75;;;4.80;99.90;;;;;;5073306;28;20044;-73
2021/01/21 04:47:45;;;;;;;1.42;1.33;;;5.10;99.90;;;;;;5073064;28;20056;-71
2021/01/21 04:50:12;;;;;;;1.88;0.98;;;5.50;99.90;;;;;;5075351;28;20078;-72
2021/01/21 04:52:39;;;;;;;1.08;0.90;;;5.90;99.90;;;;;;5076385;28;20573;-70
2021/01/21 04:55:05;;;;;;;1.05;0.80;;;6.40;99.90;;;;;;5078071;28;20016;-72
2021/01/21 04:57:51;;;;;;;2.45;1.90;;;6.60;99.90;;;;;;5097735;28;20016;-73
2021/01/21 05:00:18;;;;;;;2.35;1.80;;;6.60;99.90;;;;;;5059871;28;20030;-75
2021/01/21 05:02:45;;;;;;;1.38;1.25;;;6.50;99.90;;;;;;5045267;28;20048;-71
2021/01/21 05:05:11;;;;;;;2.00;1.30;;;6.50;99.90;;;;;;5036757;28;20053;-71
2021/01/21 05:07:40;;;;;;;1.67;0.95;;;6.60;99.90;;;;;;5036246;28;20036;-68
2021/01/21 05:10:07;;;;;;;3.45;1.92;;;6.70;99.90;;;;;;5035803;28;20021;-70
2021/01/21 05:12:34;;;;;;;2.70;1.55;;;6.90;99.90;;;;;;5035386;28;20383;-70
2021/01/21 05:15:00;;;;;;;2.30;1.90;;;6.70;99.90;;;;;;5034731;28;20124;-70
2021/01/21 05:17:26;;;;;;;2.83;1.63;;;6.60;99.90;;;;;;5060464;28;20473;-72
2021/01/21 05:19:53;;;;;;;2.47;1.70;;;6.40;99.90;;;;;;5057793;28;20035;-71
2021/01/21 05:22:20;;;;;;;2.25;1.02;;;6.30;99.90;;;;;;5057820;28;20032;-69
2021/01/21 05:24:47;;;;;;;1.65;1.38;;;6.50;99.90;;;;;;5073399;28;20025;-71
2021/01/21 05:27:17;;;;;;;1.23;1.10;;;6.50;99.90;;;;;;5059386;28;20020;-72
2021/01/21 05:29:47;;;;;;;1.08;0.82;;;6.80;99.90;;;;;;5058799;28;20127;-71
2021/01/21 05:32:14;;;;;;;0.98;0.88;;;6.90;99.90;;;;;;5074611;28;20024;-73
2021/01/21 05:34:43;;;;;;;2.08;1.65;;;6.90;99.90;;;;;;5073414;28;20048;-69
2021/01/21 05:37:10;;;;;;;2.47;1.60;;;6.80;99.90;;;;;;5074273;28;20059;-72
2021/01/21 05:39:44;;;;;;;3.80;2.05;;;6.70;99.90;;;;;;5073204;28;20025;-71
2021/01/21 05:42:10;;;;;;;4.50;1.85;;;6.50;99.90;;;;;;5056834;28;20032;-73
2021/01/21 05:44:36;;;;;;;2.33;1.90;;;6.40;99.90;;;;;;5053972;28;20490;-72
2021/01/21 05:47:07;;;;;;;2.88;1.52;;;6.20;99.90;;;;;;5073890;28;20024;-70
2021/01/21 05:49:34;;;;;;;1.83;1.42;;;6.10;99.90;;;;;;5074126;28;20029;-70
2021/01/21 05:52:00;;;;;;;4.30;1.27;;;6.30;99.90;;;;;;5072208;23;20642;-67
2021/01/21 05:54:27;;;;;;;1.98;1.30;;;6.40;99.90;;;;;;5042662;28;20027;-69
2021/01/21 05:56:55;;;;;;;5.25;1.75;;;6.50;99.90;;;;;;5053553;28;20028;-68
2021/01/21 05:59:23;;;;;;;2.08;1.20;;;6.60;99.90;;;;;;5053507;28;20107;-67
2021/01/21 06:01:51;;;;;;;1.45;1.00;;;6.60;99.90;;;;;;5037915;28;20112;-67
2021/01/21 06:04:17;;;;;;;2.72;0.90;;;6.80;99.90;;;;;;5032793;28;20026;-68
2021/01/21 06:06:44;;;;;;;1.10;0.70;;;7.10;99.90;;;;;;5033190;28;20029;-67
2021/01/21 06:09:15;;;;;;;1.00;0.90;;;7.30;99.90;;;;;;5023611;28;20623;-70
2021/01/21 06:11:44;;;;;;;2.05;1.15;;;7.40;99.90;;;;;;5029745;28;20017;-68
2021/01/21 06:14:11;;;;;;;1.25;1.00;;;7.40;99.90;;;;;;5032528;28;20052;-72
2021/01/21 06:16:38;;;;;;;5.07;1.13;;;7.30;99.90;;;;;;5021721;28;20049;-71
2021/01/21 06:19:04;;;;;;;1.42;1.23;;;7.20;99.90;;;;;;5014319;28;20105;-69
2021/01/21 06:21:35;;;;;;;0.85;0.82;;;7.20;99.90;;;;;;5022786;28;20810;-68
2021/01/21 06:24:04;;;;;;;1.08;0.98;;;7.30;99.90;;;;;;5032363;28;20041;-67
2021/01/21 06:26:49;;;;;;;0.80;0.80;;;7.30;99.90;;;;;;5032324;28;20460;-67
2021/01/21 06:29:17;;;;;;;1.20;1.00;;;7.60;99.90;;;;;;5013767;28;20480;-68
2021/01/21 06:31:43;;;;;;;1.58;0.70;;;7.60;99.90;;;;;;5012855;28;20591;-67
2021/01/21 06:34:23;;;;;;;0.80;0.80;;;7.70;99.90;;;;;;5012372;28;20025;-69
2021/01/21 06:37:03;;;;;;;2.28;0.70;;;7.70;99.90;;;;;;5012625;28;20041;-68
2021/01/21 06:39:42;;;;;;;3.58;0.88;;;8.30;99.90;;;;;;5012745;28;20488;-68
2021/01/21 06:42:10;;;;;;;1.88;0.93;;;8.90;98.90;;;;;;5012642;28;20037;-68
2021/01/21 06:44:35;;;;;;;1.55;0.93;;;9.20;97.80;;;;;;5012659;28;20518;-76
2021/01/21 06:47:01;;;;;;;5.20;1.20;;;9.50;99.30;;;;;;5013171;28;20026;-75
2021/01/21 06:49:28;;;;;;;0.70;0.70;;;9.80;99.90;;;;;;5013297;28;20379;-74
2021/01/21 06:51:54;;;;;;;3.33;1.10;;;10.10;97.60;;;;;;5025026;28;20124;-67
2021/01/21 06:54:21;;;;;;;1.35;1.10;;;10.00;98.00;;;;;;5031640;28;20396;-67
2021/01/21 06:56:47;;;;;;;1.85;0.90;;;9.80;98.30;;;;;;5037643;28;20032;-65
2021/01/21 06:59:12;;;;;;;0.80;0.80;;;9.70;98.80;;;;;;5032813;28;20399;-69
2021/01/21 07:01:38;;;;;;;0.80;0.80;;;9.70;99.90;;;;;;5012625;28;20395;-68
2021/01/21 07:04:03;;;;;;;1.80;0.95;;;9.80;99.90;;;;;;5024151;28;20064;-69
2021/01/21 07:06:54;;;;;;;1.38;0.80;;;9.90;99.90;;;;;;5023379;28;20037;-68
2021/01/21 07:09:22;;;;;;;2.20;0.93;;;9.90;99.90;;;;;;5030660;28;20065;-71
2021/01/21 07:11:49;;;;;;;1.95;1.30;;;9.80;99.90;;;;;;5031405;28;20043;-70
2021/01/21 07:14:17;;;;;;;1.92;0.82;;;9.70;99.90;;;;;;5029923;28;20025;-70
2021/01/21 07:16:52;;;;;;;0.70;0.65;;;9.60;99.90;;;;;;5032145;28;20017;-70
2021/01/21 07:19:28;;;;;;;1.17;0.90;;;9.60;99.90;;;;;;5032479;28;20037;-68
2021/01/21 07:21:57;;;;;;;3.83;1.13;;;9.60;99.90;;;;;;5031563;28;20495;-68
2021/01/21 07:24:23;;;;;;;1.70;0.90;;;9.60;99.90;;;;;;5031293;28;20033;-70
2021/01/21 07:26:53;;;;;;;1.42;0.80;;;9.60;99.90;;;;;;5031076;28;20037;-70
2021/01/21 07:29:20;;;;;;;0.98;0.85;;;9.50;99.90;;;;;;5013956;28;20028;-69
2021/01/21 07:31:52;;;;;;;2.15;0.80;;;9.70;99.90;;;;;;5031024;28;20044;-64
2021/01/21 07:34:40;;;;;;;1.10;0.73;;;9.70;99.90;;;;;;5026471;28;20423;-67
2021/01/21 07:37:22;;;;;;;1.35;0.63;;;9.80;99.90;;;;;;5030882;28;20104;-65
2021/01/21 07:39:54;;;;;;;0.60;0.60;;;9.90;99.90;;;;;;5014416;28;20032;-65
2021/01/21 07:42:21;;;;;;;3.08;0.77;;;10.10;99.90;;;;;;5011574;28;20360;-63
2021/01/21 07:44:50;;;;;;;1.23;0.50;;;10.20;99.90;;;;;;5010787;28;20372;-65
2021/01/21 07:47:30;;;;;;;0.70;0.60;;;10.30;99.90;;;;;;5011401;28;20031;-64
2021/01/21 07:50:24;;;;;;;6.75;6.25;;;10.40;99.90;;;;;;5011650;28;20029;-63
2021/01/21 07:52:57;;;;;;;0.40;0.40;;;10.40;99.90;;;;;;5015033;28;20022;-70
2021/01/21 07:55:37;;;;;;;2.65;2.42;;;10.50;99.90;;;;;;5011037;28;20018;-69
2021/01/21 07:58:22;;;;;;;11.85;9.63;;;10.50;99.90;;;;;;5011341;28;20112;-70
2021/01/21 08:00:50;;;;;;;9.75;8.93;;;10.70;99.90;;;;;;5023473;28;20427;-70
2021/01/21 08:03:42;;;;;;;1.48;0.70;;;10.70;99.90;;;;;;5027366;28;20361;-69
2021/01/21 08:06:14;;;;;;;0.40;0.40;;;10.80;99.90;;;;;;5020222;28;20075;-70
2021/01/21 08:08:42;;;;;;;0.75;0.50;;;11.00;99.90;;;;;;5031565;28;20049;-72
2021/01/21 08:11:10;;;;;;;0.43;0.40;;;11.00;99.90;;;;;;5031424;28;20364;-68
2021/01/21 08:13:36;;;;;;;2.47;0.40;;;11.00;99.90;;;;;;5031043;28;20530;-70
2021/01/21 08:16:03;;;;;;;5.28;0.60;;;11.40;99.90;;;;;;5029600;28;20105;-71
2021/01/21 08:18:29;;;;;;;0.60;0.55;;;11.80;99.90;;;;;;5021986;28;20121;-70
2021/01/21 08:20:55;;;;;;;1.25;0.50;;;12.20;99.70;;;;;;5030854;28;20530;-70
2021/01/21 08:23:21;;;;;;;0.60;0.60;;;12.90;98.70;;;;;;5030650;28;20112;-67
2021/01/21 08:25:53;;;;;;;0.65;0.65;;;12.80;98.10;;;;;;5034243;28;20045;-68
2021/01/21 08:28:25;;;;;;;1.92;0.60;;;12.00;99.00;;;;;;5035174;28;20104;-69
2021/01/21 08:30:51;;;;;;;;;;;13.30;97.40;;;;;;5035961;28;20024;-70
2021/01/21 08:33:27;;;;;;;0.40;0.40;;;13.80;95.70;;;;;;5016475;28;19988;-71
2021/01/21 08:36:01;;;;;;;0.40;0.40;;;12.70;96.70;;;;;;5034621;28;20360;-70
2021/01/21 08:38:42;;;;;;;0.60;0.60;;;12.00;98.10;;;;;;5035167;28;20030;-72
2021/01/21 08:41:12;;;;;;;0.55;0.40;;;13.70;96.30;;;;;;5035272;28;20720;-70
2021/01/21 08:43:39;;;;;;;0.40;0.40;;;15.70;92.20;;;;;;5033954;28;20036;-72
2021/01/21 08:46:12;;;;;;;0.60;0.60;;;16.10;90.30;;;;;;5034409;28;20033;-69
2021/01/21 08:48:38;;;;;;;0.45;0.45;;;16.80;88.20;;;;;;5035049;28;20022;-69
2021/01/21 08:51:04;;;;;;;0.85;0.57;;;17.00;83.90;;;;;;5034987;28;20037;-71
2021/01/21 08:53:30;;;;;;;1.50;0.60;;;15.90;88.00;;;;;;5016234;28;20060;-69
2021/01/21 08:55:57;;;;;;;1.50;0.52;;;14.80;90.30;;;;;;5034538;28;20018;-70
2021/01/21 08:58:31;;;;;;;0.50;0.50;;;13.60;92.90;;;;;;5017211;28;20396;-69
2021/01/21 09:01:07;;;;;;;1.63;1.00;;;14.90;90.90;;;;;;5032950;28;20018;-69
2021/01/21 09:03:48;;;;;;;1.23;0.60;;;16.90;84.20;;;;;;5023230;28;20030;-69
2021/01/21 09:06:17;;;;;;;0.95;0.70;;;17.70;82.40;;;;;;5029559;28;20018;-69
2021/01/21 09:08:56;;;;;;;0.60;0.30;;;17.60;79.50;;;;;;5028459;28;20104;-69
2021/01/21 09:11:28;;;;;;;2.55;0.60;;;16.70;80.80;;;;;;4999372;28;20117;-69
2021/01/21 09:13:55;;;;;;;0.68;0.60;;;16.40;83.40;;;;;;5013465;28;20029;-69
2021/01/21 09:16:38;;;;;;;0.55;0.40;;;17.00;82.90;;;;;;5014393;28;20500;-69
2021/01/21 09:19:03;;;;;;;4.10;0.60;;;17.60;79.10;;;;;;5014684;28;20034;-70
2021/01/21 09:21:29;;;;;;;0.68;0.68;;;17.60;80.70;;;;;;4996811;28;20045;-68
2021/01/21 09:24:12;;;;;;;0.32;0.32;;;16.90;80.80;;;;;;5028566;28;20025;-68
2021/01/21 09:26:37;;;;;;;1.55;0.60;;;15.50;85.70;;;;;;5034521;28;20047;-69
2021/01/21 09:29:03;;;;;;;1.45;0.50;;;15.30;87.80;;;;;;5034126;28;20471;-69
2021/01/21 09:31:31;;;;;;;0.73;0.47;;;15.30;88.80;;;;;;5034208;28;20403;-68
2021/01/21 09:33:57;;;;;;;1.08;0.40;;;15.30;88.40;;;;;;5033792;28;20025;-71
2021/01/21 09:36:28;;;;;;;0.50;0.50;;;15.40;88.20;;;;;;5034199;28;20032;-69
2021/01/21 09:38:54;;;;;;;0.82;0.50;;;16.30;84.80;;;;;;5035462;28;20082;-72
2021/01/21 09:41:21;;;;;;;1.35;0.50;;;17.40;81.80;;;;;;5035393;28;20454;-70
2021/01/21 09:43:46;;;;;;;0.95;0.65;;;16.90;81.90;;;;;;5034580;28;20025;-71
2021/01/21 09:46:12;;;;;;;0.50;0.50;;;15.40;86.10;;;;;;5035102;28;20021;-71
2021/01/21 09:48:38;;;;;;;0.98;0.65;;;17.40;82.70;;;;;;5035020;28;20022;-71
2021/01/21 09:51:04;;;;;;;0.50;0.40;;;17.00;80.90;;;;;;5034974;28;20029;-66
2021/01/21 09:53:29;;;;;;;1.40;0.60;;;18.60;79.90;;;;;;5033469;28;20032;-66
2021/01/21 09:55:55;;;;;;;2.28;0.57;;;21.90;67.60;;;;;;5034261;28;20491;-67
2021/01/21 09:58:25;;;;;;;1.20;0.50;;;22.90;61.20;;;;;;5031188;28;20021;-69
2021/01/21 10:00:52;;;;;;;0.40;0.40;;;22.60;61.40;;;;;;5034088;28;20018;-66
2021/01/21 10:03:18;;;;;;;0.73;0.50;;;19.20;67.30;;;;;;5031302;28;20029;-66
2021/01/21 10:05:46;;;;;;;0.38;0.38;;;17.60;73.60;;;;;;5031570;28;20033;-67
2021/01/21 10:08:12;;;;;;;0.50;0.50;;;16.40;77.00;;;;;;5033614;28;20032;-65
2021/01/21 10:10:38;;;;;;;1.13;0.32;;;15.70;80.80;;;;;;5033733;28;20522;-67
2021/01/21 10:13:04;;;;;;;0.70;0.50;;;16.00;80.60;;;;;;5032825;28;20026;-66
2021/01/21 10:15:30;;;;;;;0.68;0.45;;;15.50;83.50;;;;;;5034052;28;20148;-66
2021/01/21 10:17:55;;;;;;;0.55;0.55;;;14.80;83.80;;;;;;5034352;28;20033;-64
2021/01/21 10:20:21;;;;;;;1.20;0.40;;;14.60;85.20;;;;;;5033754;28;20029;-67
2021/01/21 10:22:47;;;;;;;1.23;0.65;;;16.90;81.00;;;;;;5021237;28;20118;-66
2021/01/21 10:25:13;;;;;;;0.63;0.45;;;17.50;77.40;;;;;;5013509;28;20030;-66
2021/01/21 10:27:39;;;;;;;0.43;0.43;;;18.70;72.50;;;;;;5013734;28;20036;-70
2021/01/21 10:30:05;;;;;;;0.68;0.52;;;21.50;67.60;;;;;;5014539;28;20026;-71
2021/01/21 10:32:34;;;;;;;0.73;0.45;;;23.40;59.00;;;;;;5014341;28;20028;-70
2021/01/21 10:35:00;;;;;;;0.65;0.55;;;22.10;61.60;;;;;;5014398;28;20076;-71
2021/01/21 10:37:25;;;;;;;4.38;0.73;;;22.20;58.00;;;;;;5014922;28;20026;-70
2021/01/21 10:39:52;;;;;;;0.47;0.47;;;21.10;63.10;;;;;;5032276;28;20026;-71
2021/01/21 10:42:18;;;;;;;0.30;0.30;;;22.30;60.70;;;;;;5033801;28;20059;-70
2021/01/21 10:44:43;;;;;;;1.10;0.50;;;21.50;59.70;;;;;;5033565;28;20108;-70
2021/01/21 10:47:09;;;;;;;0.43;0.40;;;23.90;56.20;;;;;;5034172;28;20072;-67
2021/01/21 10:49:35;;;;;;;0.70;0.70;;;20.80;59.70;;;;;;5034859;28;20160;-72
2021/01/21 10:52:01;;;;;;;1.30;0.57;;;18.40;66.80;;;;;;5034119;28;20233;-70
2021/01/21 10:54:27;;;;;;;0.32;0.32;;;17.20;72.10;;;;;;5032819;28;20037;-70
2021/01/21 10:56:56;;;;;;;0.43;0.43;;;16.50;74.00;;;;;;5015464;28;20095;-71
2021/01/21 10:59:21;;;;;;;2.40;0.40;;;16.20;75.10;;;;;;5021994;28;20029;-71
2021/01/21 11:01:47;;;;;;;1.27;0.60;;;18.20;72.00;;;;;;5013722;28;20073;-69
2021/01/21 11:04:13;;;;;;;1.25;0.70;;;19.60;66.10;;;;;;4995290;28;20387;-68
2021/01/21 11:06:39;;;;;;;0.75;0.43;;;20.00;72.40;;;;;;5015887;28;20034;-74
2021/01/21 11:09:05;;;;;;;1.35;0.80;;;21.30;65.80;;;;;;5028903;28;20104;-75
2021/01/21 11:11:31;;;;;;;11.27;1.10;;;21.80;65.70;;;;;;5017745;28;20510;-77
2021/01/21 11:13:57;;;;;;;1.95;1.00;;;21.00;67.00;;;;;;5037204;28;20100;-75
2021/01/21 11:16:23;;;;;;;1.05;0.50;;;21.40;63.90;;;;;;5034481;28;20519;-65
2021/01/21 11:18:48;;;;;;;0.40;0.40;;;20.50;62.60;;;;;;5032572;28;20033;-71
2021/01/21 11:21:15;;;;;;;0.65;0.50;;;18.40;68.00;;;;;;5033015;28;20088;-73
2021/01/21 11:23:40;;;;;;;0.50;0.50;;;19.80;66.50;;;;;;5032912;28;20029;-70
2021/01/21 11:26:06;;;;;;;1.02;0.70;;;20.40;61.70;;;;;;5032101;28;20155;-74
2021/01/21 11:28:31;;;;;;;0.40;0.40;;;19.30;66.30;;;;;;5033556;28;20092;-71
2021/01/21 11:30:57;;;;;;;2.33;0.43;;;18.00;69.40;;;;;;5033550;28;20017;-73
2021/01/21 11:33:23;;;;;;;0.55;0.55;;;16.50;73.80;;;;;;5015262;28;20075;-71
2021/01/21 11:35:50;;;;;;;2.80;0.50;;;16.40;76.30;;;;;;5033701;28;20056;-74
2021/01/21 11:38:16;;;;;;;1.25;0.65;;;15.80;77.80;;;;;;5033809;28;20080;-71
2021/01/21 11:40:42;;;;;;;1.58;0.50;;;15.30;79.50;;;;;;5033080;28;20029;-72
2021/01/21 11:43:08;;;;;;;1.65;0.60;;;15.10;79.80;;;;;;5014880;28;20021;-72
2021/01/21 11:45:34;;;;;;;0.70;0.70;;;14.90;80.60;;;;;;5033444;28;20029;-72
2021/01/21 11:48:00;;;;;;;1.00;0.73;;;14.70;82.40;;;;;;5016435;28;20025;-71
2021/01/21 11:50:26;;;;;;;0.73;0.50;;;14.80;82.30;;;;;;5034778;28;20594;-74
2021/01/21 11:52:51;;;;;;;2.58;0.60;;;14.60;82.60;;;;;;5035871;28;20025;-71
2021/01/21 11:55:17;;;;;;;1.83;0.60;;;14.60;82.50;;;;;;5034272;28;20379;-74
2021/01/21 11:57:43;;;;;;;0.73;0.68;;;14.50;83.20;;;;;;5033072;28;20543;-73
2021/01/21 12:00:11;;;;;;;0.60;0.60;;;14.20;84.10;;;;;;5034192;28;20104;-73
2021/01/21 12:02:38;;;;;;;0.68;0.55;;;14.20;85.00;;;;;;5031650;28;20021;-73
2021/01/21 12:05:04;;;;;;;0.77;0.47;;;13.90;85.40;;;;;;5031827;28;20450;-71
2021/01/21 12:07:29;;;;;;;0.82;0.43;;;14.10;85.80;;;;;;5031548;28;20072;-71
2021/01/21 12:09:55;;;;;;;0.50;0.50;;;15.20;82.70;;;;;;5031389;28;20025;-72
2021/01/21 12:12:22;;;;;;;0.60;0.60;;;15.20;81.70;;;;;;5031215;28;20021;-72
2021/01/21 12:14:47;;;;;;;2.13;0.47;;;15.00;83.40;;;;;;5031379;28;20052;-71
2021/01/21 12:17:13;;;;;;;0.60;0.43;;;15.30;83.80;;;;;;5013967;28;20479;-70
2021/01/21 12:19:39;;;;;;;0.60;0.50;;;15.30;83.00;;;;;;5031887;28;20083;-72
2021/01/21 12:22:05;;;;;;;0.73;0.65;;;15.00;83.30;;;;;;5031743;28;20025;-73
2021/01/21 12:24:30;;;;;;;0.98;0.75;;;14.60;84.10;;;;;;5030948;28;20373;-71
2021/01/21 12:26:56;;;;;;;0.65;0.40;;;14.40;86.40;;;;;;5031425;28;20104;-71
2021/01/21 12:31:52;;;;;;;1.45;0.60;;;13.80;88.10;;;;;;5038665;28;20054;-66
2021/01/21 12:34:17;;;;;;;1.35;0.80;;;13.90;87.50;;;;;;5038864;28;20017;-69
2021/01/21 12:36:43;;;;;;;1.45;0.63;;;14.00;87.90;;;;;;5046332;28;20447;-68
2021/01/21 12:39:09;;;;;;;2.55;0.77;;;14.20;86.50;;;;;;5047036;28;20038;-69
2021/01/21 12:41:35;;;;;;;1.40;0.40;;;14.00;87.00;;;;;;5039135;28;20052;-70
2021/01/21 12:44:00;;;;;;;1.38;0.50;;;14.30;85.90;;;;;;5050922;28;20032;-68
2021/01/21 12:46:28;;;;;;;0.47;0.47;;;14.30;86.90;;;;;;5032841;28;20041;-69
2021/01/21 12:48:57;;;;;;;1.30;0.90;;;14.20;86.40;;;;;;5044652;28;20014;-70
2021/01/21 12:51:23;;;;;;;0.65;0.50;;;14.30;87.50;;;;;;5047972;28;20356;-71
2021/01/21 12:53:52;;;;;;;0.65;0.47;;;14.70;90.20;;;;;;5050468;28;20036;-71
2021/01/21 12:56:18;;;;;;;2.30;0.75;;;15.20;89.40;;;;;;5051050;28;20021;-70
2021/01/21 12:58:43;;;;;;;0.47;0.40;;;15.70;84.20;;;;;;5033541;28;20036;-72
2021/01/21 13:01:10;;;;;;;1.77;0.60;;;15.30;83.20;;;;;;5033501;28;20031;-73